sensor_id;sensor_type;location;lat;lon;timestamp;P1;durP1;ratioP1;P2;durP2;ratioP2
22646;SDS011;11490;42.726;23.268;2023-01-31T00:01:24;7.78;;;6.30;;
22646;SDS011;11490;42.726;23.268;2023-01-31T00:03:52;13.88;;;6.32;;
22646;SDS011;11490;42.726;23.268;2023-01-31T00:06:21;14.73;;;7.60;;
22646;SDS011;11490;42.726;23.268;2023-01-31T00:08:48;10.60;;;7.15;;
22646;SDS011;11490;42.726;23.268;2023-01-31T00:11:16;8.05;;;6.60;;
22646;SDS011;11490;42.726;23.268;2023-01-31T00:13:43;10.03;;;7.07;;
22646;SDS011;11490;42.726;23.268;2023-01-31T00:16:09;8.32;;;6.30;;
22646;SDS011;11490;42.726;23.268;2023-01-31T00:18:36;7.37;;;5.50;;
22646;SDS011;11490;42.726;23.268;2023-01-31T00:21:06;12.23;;;6.75;;
22646;SDS011;11490;42.726;23.268;2023-01-31T00:23:33;7.72;;;6.25;;
22646;SDS011;11490;42.726;23.268;2023-01-31T00:28:41;8.87;;;5.93;;
22646;SDS011;11490;42.726;23.268;2023-01-31T00:31:08;9.70;;;6.97;;
22646;SDS011;11490;42.726;23.268;2023-01-31T00:33:34;8.63;;;5.67;;
22646;SDS011;11490;42.726;23.268;2023-01-31T00:36:04;6.67;;;5.97;;
22646;SDS011;11490;42.726;23.268;2023-01-31T00:38:32;7.40;;;6.30;;
22646;SDS011;11490;42.726;23.268;2023-01-31T00:40:57;12.97;;;6.77;;
22646;SDS011;11490;42.726;23.268;2023-01-31T00:43:22;10.57;;;6.77;;
22646;SDS011;11490;42.726;23.268;2023-01-31T00:45:48;7.07;;;6.30;;
22646;SDS011;11490;42.726;23.268;2023-01-31T00:48:13;9.55;;;6.28;;
22646;SDS011;11490;42.726;23.268;2023-01-31T00:50:39;9.10;;;7.53;;
22646;SDS011;11490;42.726;23.268;2023-01-31T00:53:04;11.27;;;7.17;;
22646;SDS011;11490;42.726;23.268;2023-01-31T00:55:30;6.57;;;5.75;;
22646;SDS011;11490;42.726;23.268;2023-01-31T00:57:55;9.50;;;7.25;;
22646;SDS011;11490;42.726;23.268;2023-01-31T01:00:21;9.98;;;7.93;;
22646;SDS011;11490;42.726;23.268;2023-01-31T01:02:46;7.80;;;6.70;;
22646;SDS011;11490;42.726;23.268;2023-01-31T01:05:12;12.05;;;7.72;;
22646;SDS011;11490;42.726;23.268;2023-01-31T01:07:37;13.82;;;7.85;;
22646;SDS011;11490;42.726;23.268;2023-01-31T01:10:03;9.47;;;6.70;;
22646;SDS011;11490;42.726;23.268;2023-01-31T01:12:29;7.73;;;6.73;;
22646;SDS011;11490;42.726;23.268;2023-01-31T01:14:55;11.25;;;6.22;;
22646;SDS011;11490;42.726;23.268;2023-01-31T01:17:20;8.80;;;7.10;;
22646;SDS011;11490;42.726;23.268;2023-01-31T01:19:45;6.82;;;6.20;;
22646;SDS011;11490;42.726;23.268;2023-01-31T01:22:11;15.00;;;7.70;;
22646;SDS011;11490;42.726;23.268;2023-01-31T01:24:40;8.07;;;6.47;;
22646;SDS011;11490;42.726;23.268;2023-01-31T01:27:09;10.40;;;6.63;;
22646;SDS011;11490;42.726;23.268;2023-01-31T01:29:35;13.10;;;7.53;;
22646;SDS011;11490;42.726;23.268;2023-01-31T01:32:02;7.35;;;5.75;;
22646;SDS011;11490;42.726;23.268;2023-01-31T01:34:27;11.47;;;7.67;;
22646;SDS011;11490;42.726;23.268;2023-01-31T01:36:53;13.83;;;8.00;;
22646;SDS011;11490;42.726;23.268;2023-01-31T01:39:18;10.23;;;7.17;;
22646;SDS011;11490;42.726;23.268;2023-01-31T01:41:44;9.90;;;7.23;;
22646;SDS011;11490;42.726;23.268;2023-01-31T01:47:14;12.60;;;7.50;;
22646;SDS011;11490;42.726;23.268;2023-01-31T01:49:40;10.23;;;7.20;;
22646;SDS011;11490;42.726;23.268;2023-01-31T01:52:07;10.93;;;6.27;;
22646;SDS011;11490;42.726;23.268;2023-01-31T01:54:41;8.68;;;6.93;;
22646;SDS011;11490;42.726;23.268;2023-01-31T01:57:11;13.80;;;7.77;;
22646;SDS011;11490;42.726;23.268;2023-01-31T01:59:44;11.23;;;7.30;;
22646;SDS011;11490;42.726;23.268;2023-01-31T02:02:15;20.73;;;9.90;;
22646;SDS011;11490;42.726;23.268;2023-01-31T02:04:41;19.80;;;9.63;;
22646;SDS011;11490;42.726;23.268;2023-01-31T02:07:09;14.95;;;7.00;;
22646;SDS011;11490;42.726;23.268;2023-01-31T02:12:05;10.63;;;6.90;;
22646;SDS011;11490;42.726;23.268;2023-01-31T02:14:33;16.35;;;6.90;;
22646;SDS011;11490;42.726;23.268;2023-01-31T02:16:59;9.13;;;6.28;;
22646;SDS011;11490;42.726;23.268;2023-01-31T02:19:34;10.93;;;6.88;;
22646;SDS011;11490;42.726;23.268;2023-01-31T02:39:24;9.32;;;5.72;;
22646;SDS011;11490;42.726;23.268;2023-01-31T02:41:25;8.52;;;5.88;;
22646;SDS011;11490;42.726;23.268;2023-01-31T02:47:22;7.07;;;5.67;;
22646;SDS011;11490;42.726;23.268;2023-01-31T02:53:01;8.60;;;6.30;;
22646;SDS011;11490;42.726;23.268;2023-01-31T02:55:39;6.97;;;5.27;;
22646;SDS011;11490;42.726;23.268;2023-01-31T02:58:30;10.38;;;5.82;;
22646;SDS011;11490;42.726;23.268;2023-01-31T03:00:59;8.95;;;6.55;;
22646;SDS011;11490;42.726;23.268;2023-01-31T03:03:28;10.98;;;6.50;;
22646;SDS011;11490;42.726;23.268;2023-01-31T03:08:50;7.10;;;6.37;;
22646;SDS011;11490;42.726;23.268;2023-01-31T03:11:45;6.33;;;5.73;;
22646;SDS011;11490;42.726;23.268;2023-01-31T03:14:28;10.83;;;7.07;;
22646;SDS011;11490;42.726;23.268;2023-01-31T03:22:44;11.90;;;6.23;;
22646;SDS011;11490;42.726;23.268;2023-01-31T03:25:13;8.40;;;6.20;;
22646;SDS011;11490;42.726;23.268;2023-01-31T03:27:43;8.00;;;5.73;;
22646;SDS011;11490;42.726;23.268;2023-01-31T03:30:15;7.50;;;5.93;;
22646;SDS011;11490;42.726;23.268;2023-01-31T03:32:48;6.30;;;5.32;;
22646;SDS011;11490;42.726;23.268;2023-01-31T03:35:20;5.85;;;5.28;;
22646;SDS011;11490;42.726;23.268;2023-01-31T03:37:51;7.93;;;6.30;;
22646;SDS011;11490;42.726;23.268;2023-01-31T03:40:29;5.87;;;5.03;;
22646;SDS011;11490;42.726;23.268;2023-01-31T03:43:11;5.87;;;5.00;;
22646;SDS011;11490;42.726;23.268;2023-01-31T03:45:46;5.78;;;4.25;;
22646;SDS011;11490;42.726;23.268;2023-01-31T03:48:16;7.23;;;5.93;;
22646;SDS011;11490;42.726;23.268;2023-01-31T03:50:48;6.60;;;5.80;;
22646;SDS011;11490;42.726;23.268;2023-01-31T03:55:54;13.70;;;5.70;;
22646;SDS011;11490;42.726;23.268;2023-01-31T03:58:25;7.10;;;5.57;;
22646;SDS011;11490;42.726;23.268;2023-01-31T04:00:57;7.65;;;6.43;;
22646;SDS011;11490;42.726;23.268;2023-01-31T04:03:35;8.60;;;6.10;;
22646;SDS011;11490;42.726;23.268;2023-01-31T04:06:03;12.47;;;6.17;;
22646;SDS011;11490;42.726;23.268;2023-01-31T04:08:30;6.73;;;5.97;;
22646;SDS011;11490;42.726;23.268;2023-01-31T04:10:57;7.30;;;6.20;;
22646;SDS011;11490;42.726;23.268;2023-01-31T04:13:23;9.23;;;7.82;;
22646;SDS011;11490;42.726;23.268;2023-01-31T04:15:49;10.57;;;7.13;;
22646;SDS011;11490;42.726;23.268;2023-01-31T04:18:14;14.33;;;8.13;;
22646;SDS011;11490;42.726;23.268;2023-01-31T04:20:39;11.50;;;6.20;;
22646;SDS011;11490;42.726;23.268;2023-01-31T04:23:05;5.83;;;5.23;;
22646;SDS011;11490;42.726;23.268;2023-01-31T04:25:30;8.07;;;5.87;;
22646;SDS011;11490;42.726;23.268;2023-01-31T04:27:56;10.30;;;6.13;;
22646;SDS011;11490;42.726;23.268;2023-01-31T04:30:21;8.40;;;5.00;;
22646;SDS011;11490;42.726;23.268;2023-01-31T04:32:46;5.03;;;4.63;;
22646;SDS011;11490;42.726;23.268;2023-01-31T04:35:12;8.17;;;7.10;;
22646;SDS011;11490;42.726;23.268;2023-01-31T04:37:37;7.00;;;6.30;;
22646;SDS011;11490;42.726;23.268;2023-01-31T04:40:03;8.90;;;6.27;;
22646;SDS011;11490;42.726;23.268;2023-01-31T04:42:29;5.97;;;5.37;;
22646;SDS011;11490;42.726;23.268;2023-01-31T04:44:55;11.20;;;7.27;;
22646;SDS011;11490;42.726;23.268;2023-01-31T04:47:20;7.50;;;5.77;;
22646;SDS011;11490;42.726;23.268;2023-01-31T04:49:45;7.93;;;5.63;;
22646;SDS011;11490;42.726;23.268;2023-01-31T04:52:11;7.53;;;5.70;;
22646;SDS011;11490;42.726;23.268;2023-01-31T04:54:36;8.98;;;5.63;;
22646;SDS011;11490;42.726;23.268;2023-01-31T04:57:02;7.33;;;5.87;;
22646;SDS011;11490;42.726;23.268;2023-01-31T04:59:27;7.00;;;5.43;;
22646;SDS011;11490;42.726;23.268;2023-01-31T05:01:53;7.03;;;6.33;;
22646;SDS011;11490;42.726;23.268;2023-01-31T05:04:18;7.67;;;6.33;;
22646;SDS011;11490;42.726;23.268;2023-01-31T05:06:43;8.50;;;6.38;;
22646;SDS011;11490;42.726;23.268;2023-01-31T05:09:09;7.60;;;5.67;;
22646;SDS011;11490;42.726;23.268;2023-01-31T05:11:35;7.40;;;6.60;;
22646;SDS011;11490;42.726;23.268;2023-01-31T05:14:01;9.20;;;7.20;;
22646;SDS011;11490;42.726;23.268;2023-01-31T05:16:26;6.90;;;5.97;;
22646;SDS011;11490;42.726;23.268;2023-01-31T05:18:52;10.90;;;6.40;;
22646;SDS011;11490;42.726;23.268;2023-01-31T05:21:17;9.13;;;6.88;;
22646;SDS011;11490;42.726;23.268;2023-01-31T05:23:43;14.43;;;6.77;;
22646;SDS011;11490;42.726;23.268;2023-01-31T05:26:08;7.70;;;6.17;;
22646;SDS011;11490;42.726;23.268;2023-01-31T05:28:34;14.40;;;7.37;;
22646;SDS011;11490;42.726;23.268;2023-01-31T05:31:00;8.27;;;5.67;;
22646;SDS011;11490;42.726;23.268;2023-01-31T05:33:53;10.77;;;7.33;;
22646;SDS011;11490;42.726;23.268;2023-01-31T05:36:17;10.48;;;8.30;;
22646;SDS011;11490;42.726;23.268;2023-01-31T05:38:43;9.73;;;6.80;;
22646;SDS011;11490;42.726;23.268;2023-01-31T05:41:08;7.13;;;6.45;;
22646;SDS011;11490;42.726;23.268;2023-01-31T05:46:40;7.53;;;6.80;;
22646;SDS011;11490;42.726;23.268;2023-01-31T05:49:06;13.02;;;7.93;;
22646;SDS011;11490;42.726;23.268;2023-01-31T05:51:32;9.93;;;6.63;;
22646;SDS011;11490;42.726;23.268;2023-01-31T05:54:07;8.63;;;6.43;;
22646;SDS011;11490;42.726;23.268;2023-01-31T05:56:32;7.17;;;5.63;;
22646;SDS011;11490;42.726;23.268;2023-01-31T05:59:14;12.07;;;7.00;;
22646;SDS011;11490;42.726;23.268;2023-01-31T06:02:05;10.63;;;6.87;;
22646;SDS011;11490;42.726;23.268;2023-01-31T06:04:36;8.57;;;6.33;;
22646;SDS011;11490;42.726;23.268;2023-01-31T06:07:04;11.10;;;7.33;;
22646;SDS011;11490;42.726;23.268;2023-01-31T06:09:51;8.93;;;6.87;;
22646;SDS011;11490;42.726;23.268;2023-01-31T06:12:24;14.73;;;7.20;;
22646;SDS011;11490;42.726;23.268;2023-01-31T06:15:20;17.45;;;7.47;;
22646;SDS011;11490;42.726;23.268;2023-01-31T06:17:46;7.27;;;5.83;;
22646;SDS011;11490;42.726;23.268;2023-01-31T06:20:11;11.53;;;7.43;;
22646;SDS011;11490;42.726;23.268;2023-01-31T06:22:42;9.63;;;7.03;;
22646;SDS011;11490;42.726;23.268;2023-01-31T06:25:10;12.15;;;5.93;;
22646;SDS011;11490;42.726;23.268;2023-01-31T06:30:30;8.93;;;6.35;;
22646;SDS011;11490;42.726;23.268;2023-01-31T06:32:58;10.20;;;7.43;;
22646;SDS011;11490;42.726;23.268;2023-01-31T06:35:24;8.20;;;6.73;;
22646;SDS011;11490;42.726;23.268;2023-01-31T06:37:49;10.03;;;6.77;;
22646;SDS011;11490;42.726;23.268;2023-01-31T06:40:14;7.35;;;6.28;;
22646;SDS011;11490;42.726;23.268;2023-01-31T06:42:40;11.73;;;6.80;;
22646;SDS011;11490;42.726;23.268;2023-01-31T06:45:05;8.23;;;5.75;;
22646;SDS011;11490;42.726;23.268;2023-01-31T06:47:31;16.77;;;8.95;;
22646;SDS011;11490;42.726;23.268;2023-01-31T06:49:57;12.97;;;9.17;;
22646;SDS011;11490;42.726;23.268;2023-01-31T06:52:22;10.48;;;7.07;;
22646;SDS011;11490;42.726;23.268;2023-01-31T06:58:06;9.52;;;5.93;;
22646;SDS011;11490;42.726;23.268;2023-01-31T07:00:32;10.17;;;6.30;;
22646;SDS011;11490;42.726;23.268;2023-01-31T07:02:57;9.85;;;7.18;;
22646;SDS011;11490;42.726;23.268;2023-01-31T07:05:22;7.55;;;5.95;;
22646;SDS011;11490;42.726;23.268;2023-01-31T07:07:48;9.88;;;5.90;;
22646;SDS011;11490;42.726;23.268;2023-01-31T07:10:17;15.25;;;7.38;;
22646;SDS011;11490;42.726;23.268;2023-01-31T07:12:45;12.15;;;8.05;;
22646;SDS011;11490;42.726;23.268;2023-01-31T07:15:13;10.97;;;6.73;;
22646;SDS011;11490;42.726;23.268;2023-01-31T07:17:38;8.63;;;6.43;;
22646;SDS011;11490;42.726;23.268;2023-01-31T07:20:04;10.03;;;6.40;;
22646;SDS011;11490;42.726;23.268;2023-01-31T07:22:30;8.32;;;6.32;;
22646;SDS011;11490;42.726;23.268;2023-01-31T07:24:55;8.55;;;5.88;;
22646;SDS011;11490;42.726;23.268;2023-01-31T07:27:20;8.60;;;6.65;;
22646;SDS011;11490;42.726;23.268;2023-01-31T07:29:46;8.45;;;7.25;;
22646;SDS011;11490;42.726;23.268;2023-01-31T07:32:11;8.33;;;6.03;;
22646;SDS011;11490;42.726;23.268;2023-01-31T07:34:43;11.70;;;7.97;;
22646;SDS011;11490;42.726;23.268;2023-01-31T07:39:59;6.95;;;5.82;;
22646;SDS011;11490;42.726;23.268;2023-01-31T07:42:24;8.80;;;5.88;;
22646;SDS011;11490;42.726;23.268;2023-01-31T07:44:51;8.95;;;6.30;;
22646;SDS011;11490;42.726;23.268;2023-01-31T07:47:20;7.60;;;6.32;;
22646;SDS011;11490;42.726;23.268;2023-01-31T07:49:45;6.18;;;5.57;;
22646;SDS011;11490;42.726;23.268;2023-01-31T07:52:12;10.05;;;7.07;;
22646;SDS011;11490;42.726;23.268;2023-01-31T07:54:40;9.75;;;5.90;;
22646;SDS011;11490;42.726;23.268;2023-01-31T07:57:05;8.93;;;6.28;;
22646;SDS011;11490;42.726;23.268;2023-01-31T07:59:31;17.00;;;8.13;;
22646;SDS011;11490;42.726;23.268;2023-01-31T08:01:56;13.20;;;8.13;;
22646;SDS011;11490;42.726;23.268;2023-01-31T08:04:40;11.23;;;7.88;;
22646;SDS011;11490;42.726;23.268;2023-01-31T08:07:05;12.57;;;7.60;;
22646;SDS011;11490;42.726;23.268;2023-01-31T08:09:31;9.65;;;6.93;;
22646;SDS011;11490;42.726;23.268;2023-01-31T08:11:57;19.27;;;7.85;;
22646;SDS011;11490;42.726;23.268;2023-01-31T08:14:22;9.75;;;7.30;;
22646;SDS011;11490;42.726;23.268;2023-01-31T08:16:58;12.30;;;6.55;;
22646;SDS011;11490;42.726;23.268;2023-01-31T08:19:23;10.32;;;8.30;;
22646;SDS011;11490;42.726;23.268;2023-01-31T08:21:50;7.05;;;6.07;;
22646;SDS011;11490;42.726;23.268;2023-01-31T08:24:16;9.23;;;6.10;;
22646;SDS011;11490;42.726;23.268;2023-01-31T08:26:41;8.07;;;5.32;;
22646;SDS011;11490;42.726;23.268;2023-01-31T08:29:07;9.90;;;6.38;;
22646;SDS011;11490;42.726;23.268;2023-01-31T08:31:33;4.30;;;3.85;;
22646;SDS011;11490;42.726;23.268;2023-01-31T08:33:58;6.63;;;5.47;;
22646;SDS011;11490;42.726;23.268;2023-01-31T08:36:24;7.18;;;5.63;;
22646;SDS011;11490;42.726;23.268;2023-01-31T08:38:52;10.23;;;7.10;;
22646;SDS011;11490;42.726;23.268;2023-01-31T08:41:18;4.80;;;4.35;;
22646;SDS011;11490;42.726;23.268;2023-01-31T08:43:45;5.05;;;4.57;;
22646;SDS011;11490;42.726;23.268;2023-01-31T08:46:12;6.00;;;4.93;;
22646;SDS011;11490;42.726;23.268;2023-01-31T08:48:38;9.57;;;6.32;;
22646;SDS011;11490;42.726;23.268;2023-01-31T08:51:06;7.00;;;6.30;;
22646;SDS011;11490;42.726;23.268;2023-01-31T08:53:33;6.13;;;4.95;;
22646;SDS011;11490;42.726;23.268;2023-01-31T08:55:59;7.28;;;4.95;;
22646;SDS011;11490;42.726;23.268;2023-01-31T08:58:26;7.82;;;5.80;;
22646;SDS011;11490;42.726;23.268;2023-01-31T09:00:52;7.93;;;5.53;;
22646;SDS011;11490;42.726;23.268;2023-01-31T09:03:17;7.80;;;5.07;;
22646;SDS011;11490;42.726;23.268;2023-01-31T09:05:43;8.93;;;5.43;;
22646;SDS011;11490;42.726;23.268;2023-01-31T09:08:09;6.05;;;4.78;;
22646;SDS011;11490;42.726;23.268;2023-01-31T09:10:34;9.82;;;5.85;;
22646;SDS011;11490;42.726;23.268;2023-01-31T09:13:00;10.07;;;5.78;;
22646;SDS011;11490;42.726;23.268;2023-01-31T09:15:25;10.40;;;5.18;;
22646;SDS011;11490;42.726;23.268;2023-01-31T09:17:51;7.97;;;5.53;;
22646;SDS011;11490;42.726;23.268;2023-01-31T09:20:29;8.45;;;5.32;;
22646;SDS011;11490;42.726;23.268;2023-01-31T09:23:20;9.10;;;4.97;;
22646;SDS011;11490;42.726;23.268;2023-01-31T09:25:52;8.00;;;5.05;;
22646;SDS011;11490;42.726;23.268;2023-01-31T09:28:24;8.45;;;5.60;;
22646;SDS011;11490;42.726;23.268;2023-01-31T09:30:50;5.07;;;4.18;;
22646;SDS011;11490;42.726;23.268;2023-01-31T09:33:17;6.40;;;3.63;;
22646;SDS011;11490;42.726;23.268;2023-01-31T09:36:04;5.68;;;4.45;;
22646;SDS011;11490;42.726;23.268;2023-01-31T09:38:42;7.07;;;5.57;;
22646;SDS011;11490;42.726;23.268;2023-01-31T09:41:16;5.03;;;4.53;;
22646;SDS011;11490;42.726;23.268;2023-01-31T09:47:45;5.35;;;4.85;;
22646;SDS011;11490;42.726;23.268;2023-01-31T09:53:34;10.00;;;5.47;;
22646;SDS011;11490;42.726;23.268;2023-01-31T09:59:28;5.63;;;3.78;;
22646;SDS011;11490;42.726;23.268;2023-01-31T10:11:06;4.85;;;3.55;;
22646;SDS011;11490;42.726;23.268;2023-01-31T10:16:41;4.85;;;4.28;;
22646;SDS011;11490;42.726;23.268;2023-01-31T10:19:14;7.18;;;4.72;;
22646;SDS011;11490;42.726;23.268;2023-01-31T10:21:53;4.28;;;3.75;;
22646;SDS011;11490;42.726;23.268;2023-01-31T10:26:57;8.02;;;4.60;;
22646;SDS011;11490;42.726;23.268;2023-01-31T10:29:32;5.20;;;3.85;;
22646;SDS011;11490;42.726;23.268;2023-01-31T10:32:05;5.00;;;3.80;;
22646;SDS011;11490;42.726;23.268;2023-01-31T10:34:47;4.65;;;3.92;;
22646;SDS011;11490;42.726;23.268;2023-01-31T10:42:49;4.95;;;4.10;;
22646;SDS011;11490;42.726;23.268;2023-01-31T10:45:19;4.97;;;3.30;;
22646;SDS011;11490;42.726;23.268;2023-01-31T10:47:55;4.50;;;3.60;;
22646;SDS011;11490;42.726;23.268;2023-01-31T10:50:31;5.03;;;3.78;;
22646;SDS011;11490;42.726;23.268;2023-01-31T10:53:58;6.25;;;3.90;;
22646;SDS011;11490;42.726;23.268;2023-01-31T10:56:36;4.00;;;3.45;;
22646;SDS011;11490;42.726;23.268;2023-01-31T10:59:06;6.45;;;4.75;;
22646;SDS011;11490;42.726;23.268;2023-01-31T11:01:48;4.50;;;3.58;;
22646;SDS011;11490;42.726;23.268;2023-01-31T11:04:24;3.90;;;3.60;;
22646;SDS011;11490;42.726;23.268;2023-01-31T11:06:53;4.05;;;3.65;;
22646;SDS011;11490;42.726;23.268;2023-01-31T11:09:19;5.72;;;4.38;;
22646;SDS011;11490;42.726;23.268;2023-01-31T11:11:54;5.60;;;4.13;;
22646;SDS011;11490;42.726;23.268;2023-01-31T11:14:21;5.53;;;4.72;;
22646;SDS011;11490;42.726;23.268;2023-01-31T11:16:47;6.88;;;5.22;;
22646;SDS011;11490;42.726;23.268;2023-01-31T11:21:50;5.97;;;5.15;;
22646;SDS011;11490;42.726;23.268;2023-01-31T11:24:24;7.35;;;4.85;;
22646;SDS011;11490;42.726;23.268;2023-01-31T11:29:32;8.50;;;5.78;;
22646;SDS011;11490;42.726;23.268;2023-01-31T11:32:04;6.85;;;4.97;;
22646;SDS011;11490;42.726;23.268;2023-01-31T11:34:38;8.00;;;5.00;;
22646;SDS011;11490;42.726;23.268;2023-01-31T11:37:19;12.80;;;5.22;;
22646;SDS011;11490;42.726;23.268;2023-01-31T11:39:55;7.72;;;5.22;;
22646;SDS011;11490;42.726;23.268;2023-01-31T11:42:54;9.63;;;5.97;;
22646;SDS011;11490;42.726;23.268;2023-01-31T11:45:22;5.05;;;4.43;;
22646;SDS011;11490;42.726;23.268;2023-01-31T11:47:52;4.30;;;3.90;;
22646;SDS011;11490;42.726;23.268;2023-01-31T11:52:59;6.43;;;5.10;;
22646;SDS011;11490;42.726;23.268;2023-01-31T11:55:27;5.32;;;4.80;;
22646;SDS011;11490;42.726;23.268;2023-01-31T11:58:00;5.03;;;4.25;;
22646;SDS011;11490;42.726;23.268;2023-01-31T12:00:32;5.95;;;4.75;;
22646;SDS011;11490;42.726;23.268;2023-01-31T12:05:51;5.55;;;4.93;;
22646;SDS011;11490;42.726;23.268;2023-01-31T12:10:56;4.95;;;4.53;;
22646;SDS011;11490;42.726;23.268;2023-01-31T12:13:23;9.88;;;6.25;;
22646;SDS011;11490;42.726;23.268;2023-01-31T12:15:52;5.57;;;4.47;;
22646;SDS011;11490;42.726;23.268;2023-01-31T12:18:46;7.03;;;4.95;;
22646;SDS011;11490;42.726;23.268;2023-01-31T12:21:23;5.82;;;4.53;;
22646;SDS011;11490;42.726;23.268;2023-01-31T12:24:07;5.20;;;4.30;;
22646;SDS011;11490;42.726;23.268;2023-01-31T12:26:47;4.97;;;4.55;;
22646;SDS011;11490;42.726;23.268;2023-01-31T12:29:21;6.57;;;3.95;;
22646;SDS011;11490;42.726;23.268;2023-01-31T12:43:42;4.78;;;4.18;;
22646;SDS011;11490;42.726;23.268;2023-01-31T12:46:13;6.07;;;4.63;;
22646;SDS011;11490;42.726;23.268;2023-01-31T12:48:58;12.88;;;6.60;;
22646;SDS011;11490;42.726;23.268;2023-01-31T12:51:45;11.15;;;6.75;;
22646;SDS011;11490;42.726;23.268;2023-01-31T13:00:02;4.43;;;3.72;;
22646;SDS011;11490;42.726;23.268;2023-01-31T13:02:39;7.10;;;5.20;;
22646;SDS011;11490;42.726;23.268;2023-01-31T13:07:44;4.93;;;4.43;;
22646;SDS011;11490;42.726;23.268;2023-01-31T13:10:27;6.70;;;4.95;;
22646;SDS011;11490;42.726;23.268;2023-01-31T13:12:59;3.88;;;3.58;;
22646;SDS011;11490;42.726;23.268;2023-01-31T13:15:31;6.25;;;4.13;;
22646;SDS011;11490;42.726;23.268;2023-01-31T13:18:05;6.60;;;4.93;;
22646;SDS011;11490;42.726;23.268;2023-01-31T13:20:35;6.05;;;4.85;;
22646;SDS011;11490;42.726;23.268;2023-01-31T13:23:14;5.68;;;4.43;;
22646;SDS011;11490;42.726;23.268;2023-01-31T13:25:56;5.20;;;4.60;;
22646;SDS011;11490;42.726;23.268;2023-01-31T13:28:30;3.92;;;3.63;;
22646;SDS011;11490;42.726;23.268;2023-01-31T13:31:04;8.18;;;4.07;;
22646;SDS011;11490;42.726;23.268;2023-01-31T13:33:37;4.45;;;4.05;;
22646;SDS011;11490;42.726;23.268;2023-01-31T13:38:59;4.15;;;3.85;;
22646;SDS011;11490;42.726;23.268;2023-01-31T13:41:30;4.15;;;3.78;;
22646;SDS011;11490;42.726;23.268;2023-01-31T13:43:58;5.45;;;4.38;;
22646;SDS011;11490;42.726;23.268;2023-01-31T13:46:31;14.20;;;7.05;;
22646;SDS011;11490;42.726;23.268;2023-01-31T13:49:05;10.07;;;6.57;;
22646;SDS011;11490;42.726;23.268;2023-01-31T13:54:21;6.03;;;5.53;;
22646;SDS011;11490;42.726;23.268;2023-01-31T13:56:52;7.95;;;4.38;;
22646;SDS011;11490;42.726;23.268;2023-01-31T13:59:30;7.10;;;4.80;;
22646;SDS011;11490;42.726;23.268;2023-01-31T14:01:58;6.65;;;4.93;;
22646;SDS011;11490;42.726;23.268;2023-01-31T14:04:34;5.22;;;3.92;;
22646;SDS011;11490;42.726;23.268;2023-01-31T14:09:40;7.88;;;4.80;;
22646;SDS011;11490;42.726;23.268;2023-01-31T14:17:13;6.60;;;4.82;;
22646;SDS011;11490;42.726;23.268;2023-01-31T14:19:59;5.03;;;4.18;;
22646;SDS011;11490;42.726;23.268;2023-01-31T14:22:28;6.35;;;4.25;;
22646;SDS011;11490;42.726;23.268;2023-01-31T14:25:03;6.53;;;5.13;;
22646;SDS011;11490;42.726;23.268;2023-01-31T14:30:10;9.15;;;5.30;;
22646;SDS011;11490;42.726;23.268;2023-01-31T14:33:32;9.65;;;5.60;;
22646;SDS011;11490;42.726;23.268;2023-01-31T14:40:57;7.90;;;5.20;;
22646;SDS011;11490;42.726;23.268;2023-01-31T14:55:27;5.15;;;4.65;;
22646;SDS011;11490;42.726;23.268;2023-01-31T14:58:20;11.60;;;6.57;;
22646;SDS011;11490;42.726;23.268;2023-01-31T15:00:59;9.18;;;7.07;;
22646;SDS011;11490;42.726;23.268;2023-01-31T15:03:34;6.68;;;4.75;;
22646;SDS011;11490;42.726;23.268;2023-01-31T15:08:46;4.97;;;4.47;;
22646;SDS011;11490;42.726;23.268;2023-01-31T15:13:49;6.30;;;5.10;;
22646;SDS011;11490;42.726;23.268;2023-01-31T15:18:47;7.50;;;4.68;;
22646;SDS011;11490;42.726;23.268;2023-01-31T15:21:18;5.43;;;4.85;;
22646;SDS011;11490;42.726;23.268;2023-01-31T15:23:48;7.20;;;5.65;;
22646;SDS011;11490;42.726;23.268;2023-01-31T15:26:15;10.00;;;7.15;;
22646;SDS011;11490;42.726;23.268;2023-01-31T15:28:42;5.63;;;5.13;;
22646;SDS011;11490;42.726;23.268;2023-01-31T15:31:16;7.50;;;5.20;;
22646;SDS011;11490;42.726;23.268;2023-01-31T15:33:49;13.25;;;5.00;;
22646;SDS011;11490;42.726;23.268;2023-01-31T15:36:26;9.15;;;5.60;;
22646;SDS011;11490;42.726;23.268;2023-01-31T15:38:57;8.35;;;6.95;;
22646;SDS011;11490;42.726;23.268;2023-01-31T15:41:36;7.57;;;4.38;;
22646;SDS011;11490;42.726;23.268;2023-01-31T15:44:25;6.65;;;5.03;;
22646;SDS011;11490;42.726;23.268;2023-01-31T15:46:54;9.27;;;4.85;;
22646;SDS011;11490;42.726;23.268;2023-01-31T15:49:29;8.30;;;5.43;;
22646;SDS011;11490;42.726;23.268;2023-01-31T15:52:02;5.88;;;5.03;;
22646;SDS011;11490;42.726;23.268;2023-01-31T15:54:36;8.68;;;6.47;;
22646;SDS011;11490;42.726;23.268;2023-01-31T16:00:19;8.48;;;5.47;;
22646;SDS011;11490;42.726;23.268;2023-01-31T16:02:49;6.13;;;5.53;;
22646;SDS011;11490;42.726;23.268;2023-01-31T16:05:20;5.82;;;5.18;;
22646;SDS011;11490;42.726;23.268;2023-01-31T16:07:46;12.85;;;7.68;;
22646;SDS011;11490;42.726;23.268;2023-01-31T16:10:13;10.88;;;6.93;;
22646;SDS011;11490;42.726;23.268;2023-01-31T16:12:42;8.63;;;5.00;;
22646;SDS011;11490;42.726;23.268;2023-01-31T16:15:13;6.88;;;5.75;;
22646;SDS011;11490;42.726;23.268;2023-01-31T16:17:42;5.90;;;5.30;;
22646;SDS011;11490;42.726;23.268;2023-01-31T16:23:02;9.80;;;5.30;;
22646;SDS011;11490;42.726;23.268;2023-01-31T16:25:29;7.88;;;5.25;;
22646;SDS011;11490;42.726;23.268;2023-01-31T16:27:58;9.77;;;5.40;;
22646;SDS011;11490;42.726;23.268;2023-01-31T16:30:28;5.97;;;3.83;;
22646;SDS011;11490;42.726;23.268;2023-01-31T16:32:54;7.68;;;5.35;;
22646;SDS011;11490;42.726;23.268;2023-01-31T16:35:22;6.95;;;6.05;;
22646;SDS011;11490;42.726;23.268;2023-01-31T16:38:00;6.63;;;5.38;;
22646;SDS011;11490;42.726;23.268;2023-01-31T16:40:33;7.43;;;5.65;;
22646;SDS011;11490;42.726;23.268;2023-01-31T16:45:54;8.60;;;4.95;;
22646;SDS011;11490;42.726;23.268;2023-01-31T16:48:37;5.70;;;5.13;;
22646;SDS011;11490;42.726;23.268;2023-01-31T16:56:45;7.45;;;5.10;;
22646;SDS011;11490;42.726;23.268;2023-01-31T17:02:15;6.32;;;5.18;;
22646;SDS011;11490;42.726;23.268;2023-01-31T17:04:44;10.60;;;6.47;;
22646;SDS011;11490;42.726;23.268;2023-01-31T17:10:03;7.93;;;6.13;;
22646;SDS011;11490;42.726;23.268;2023-01-31T17:12:32;9.45;;;5.55;;
22646;SDS011;11490;42.726;23.268;2023-01-31T17:14:59;6.78;;;6.07;;
22646;SDS011;11490;42.726;23.268;2023-01-31T17:17:32;7.78;;;6.63;;
22646;SDS011;11490;42.726;23.268;2023-01-31T17:19:58;8.93;;;5.97;;
22646;SDS011;11490;42.726;23.268;2023-01-31T17:22:24;8.73;;;5.88;;
22646;SDS011;11490;42.726;23.268;2023-01-31T17:24:50;7.47;;;5.57;;
22646;SDS011;11490;42.726;23.268;2023-01-31T17:27:17;6.03;;;5.43;;
22646;SDS011;11490;42.726;23.268;2023-01-31T17:29:43;11.52;;;6.53;;
22646;SDS011;11490;42.726;23.268;2023-01-31T17:32:11;8.38;;;6.47;;
22646;SDS011;11490;42.726;23.268;2023-01-31T17:34:38;5.35;;;4.75;;
22646;SDS011;11490;42.726;23.268;2023-01-31T17:37:04;10.38;;;7.68;;
22646;SDS011;11490;42.726;23.268;2023-01-31T17:39:30;5.22;;;4.72;;
22646;SDS011;11490;42.726;23.268;2023-01-31T17:41:56;9.50;;;7.00;;
22646;SDS011;11490;42.726;23.268;2023-01-31T17:44:21;12.73;;;8.63;;
22646;SDS011;11490;42.726;23.268;2023-01-31T17:46:47;11.25;;;5.97;;
22646;SDS011;11490;42.726;23.268;2023-01-31T17:49:12;6.72;;;5.32;;